sensor_id;sensor_type;location;lat;lon;timestamp;P1;durP1;ratioP1;P2;durP2;ratioP2
74487;SDS011;63019;51.080;13.642;2023-04-24T00:00:14;5.40;;;3.08;;
74487;SDS011;63019;51.080;13.642;2023-04-24T00:01:16;9.55;;;3.00;;
74487;SDS011;63019;51.080;13.642;2023-04-24T00:02:18;4.72;;;2.97;;
74487;SDS011;63019;51.080;13.642;2023-04-24T00:03:20;6.07;;;3.33;;
74487;SDS011;63019;51.080;13.642;2023-04-24T00:04:23;4.57;;;2.72;;
74487;SDS011;63019;51.080;13.642;2023-04-24T00:05:27;5.20;;;2.70;;
74487;SDS011;63019;51.080;13.642;2023-04-24T00:06:29;4.17;;;2.50;;
74487;SDS011;63019;51.080;13.642;2023-04-24T00:07:34;5.97;;;2.90;;
74487;SDS011;63019;51.080;13.642;2023-04-24T00:08:36;5.55;;;3.10;;
74487;SDS011;63019;51.080;13.642;2023-04-24T00:09:38;4.20;;;2.53;;
74487;SDS011;63019;51.080;13.642;2023-04-24T00:10:40;5.63;;;2.75;;
74487;SDS011;63019;51.080;13.642;2023-04-24T00:11:42;4.95;;;2.72;;
74487;SDS011;63019;51.080;13.642;2023-04-24T00:12:44;3.58;;;2.42;;
74487;SDS011;63019;51.080;13.642;2023-04-24T00:13:46;5.97;;;2.88;;
74487;SDS011;63019;51.080;13.642;2023-04-24T00:14:47;5.82;;;2.80;;
74487;SDS011;63019;51.080;13.642;2023-04-24T00:15:49;5.65;;;2.50;;
74487;SDS011;63019;51.080;13.642;2023-04-24T00:16:51;4.23;;;2.60;;
74487;SDS011;63019;51.080;13.642;2023-04-24T00:17:53;6.88;;;2.42;;
74487;SDS011;63019;51.080;13.642;2023-04-24T00:18:55;8.30;;;2.90;;
74487;SDS011;63019;51.080;13.642;2023-04-24T00:19:57;7.32;;;3.05;;
74487;SDS011;63019;51.080;13.642;2023-04-24T00:20:59;5.07;;;2.88;;
74487;SDS011;63019;51.080;13.642;2023-04-24T00:22:01;3.97;;;2.60;;
74487;SDS011;63019;51.080;13.642;2023-04-24T00:23:03;5.65;;;2.45;;
74487;SDS011;63019;51.080;13.642;2023-04-24T00:24:06;6.15;;;2.20;;
74487;SDS011;63019;51.080;13.642;2023-04-24T00:25:10;6.53;;;2.88;;
74487;SDS011;63019;51.080;13.642;2023-04-24T00:26:11;8.93;;;2.83;;
74487;SDS011;63019;51.080;13.642;2023-04-24T00:27:13;4.07;;;2.50;;
74487;SDS011;63019;51.080;13.642;2023-04-24T00:28:15;5.72;;;2.25;;
74487;SDS011;63019;51.080;13.642;2023-04-24T00:29:17;4.25;;;2.67;;
74487;SDS011;63019;51.080;13.642;2023-04-24T00:30:19;3.20;;;2.28;;
74487;SDS011;63019;51.080;13.642;2023-04-24T00:31:20;5.07;;;2.50;;
74487;SDS011;63019;51.080;13.642;2023-04-24T00:32:22;6.70;;;2.53;;
74487;SDS011;63019;51.080;13.642;2023-04-24T00:33:24;5.78;;;2.63;;
74487;SDS011;63019;51.080;13.642;2023-04-24T00:34:26;4.05;;;2.38;;
74487;SDS011;63019;51.080;13.642;2023-04-24T00:35:28;6.78;;;2.60;;
74487;SDS011;63019;51.080;13.642;2023-04-24T00:36:30;7.82;;;2.45;;
74487;SDS011;63019;51.080;13.642;2023-04-24T00:37:32;4.07;;;2.40;;
74487;SDS011;63019;51.080;13.642;2023-04-24T00:38:33;4.30;;;2.40;;
74487;SDS011;63019;51.080;13.642;2023-04-24T00:39:35;5.10;;;2.45;;
74487;SDS011;63019;51.080;13.642;2023-04-24T00:40:37;3.58;;;2.20;;
74487;SDS011;63019;51.080;13.642;2023-04-24T00:41:39;5.20;;;2.40;;
74487;SDS011;63019;51.080;13.642;2023-04-24T00:42:41;5.47;;;2.40;;
74487;SDS011;63019;51.080;13.642;2023-04-24T00:43:44;4.53;;;2.30;;
74487;SDS011;63019;51.080;13.642;2023-04-24T00:44:46;5.07;;;2.20;;
74487;SDS011;63019;51.080;13.642;2023-04-24T00:45:48;3.72;;;2.05;;
74487;SDS011;63019;51.080;13.642;2023-04-24T00:46:50;3.38;;;2.00;;
74487;SDS011;63019;51.080;13.642;2023-04-24T00:47:55;7.13;;;2.30;;
74487;SDS011;63019;51.080;13.642;2023-04-24T00:48:58;4.32;;;2.38;;
74487;SDS011;63019;51.080;13.642;2023-04-24T00:50:04;4.72;;;2.67;;
74487;SDS011;63019;51.080;13.642;2023-04-24T00:51:07;5.57;;;2.42;;
74487;SDS011;63019;51.080;13.642;2023-04-24T00:52:09;4.82;;;2.40;;
74487;SDS011;63019;51.080;13.642;2023-04-24T00:53:11;4.47;;;2.35;;
74487;SDS011;63019;51.080;13.642;2023-04-24T00:54:13;5.43;;;2.30;;
74487;SDS011;63019;51.080;13.642;2023-04-24T00:55:15;4.38;;;2.40;;
74487;SDS011;63019;51.080;13.642;2023-04-24T00:56:18;7.20;;;2.20;;
74487;SDS011;63019;51.080;13.642;2023-04-24T00:57:21;2.80;;;2.17;;
74487;SDS011;63019;51.080;13.642;2023-04-24T00:58:24;3.80;;;2.00;;
74487;SDS011;63019;51.080;13.642;2023-04-24T00:59:27;6.80;;;2.33;;
74487;SDS011;63019;51.080;13.642;2023-04-24T01:00:29;4.28;;;2.10;;
74487;SDS011;63019;51.080;13.642;2023-04-24T01:01:32;4.78;;;2.58;;
74487;SDS011;63019;51.080;13.642;2023-04-24T01:02:34;4.85;;;2.47;;
74487;SDS011;63019;51.080;13.642;2023-04-24T01:03:36;4.32;;;2.50;;
74487;SDS011;63019;51.080;13.642;2023-04-24T01:04:39;5.38;;;2.30;;
74487;SDS011;63019;51.080;13.642;2023-04-24T01:05:41;6.18;;;2.42;;
74487;SDS011;63019;51.080;13.642;2023-04-24T01:06:43;6.10;;;2.25;;
74487;SDS011;63019;51.080;13.642;2023-04-24T01:07:46;5.60;;;2.50;;
74487;SDS011;63019;51.080;13.642;2023-04-24T01:08:50;5.20;;;2.47;;
74487;SDS011;63019;51.080;13.642;2023-04-24T01:09:52;4.22;;;2.33;;
74487;SDS011;63019;51.080;13.642;2023-04-24T01:10:53;4.93;;;2.50;;
74487;SDS011;63019;51.080;13.642;2023-04-24T01:11:56;3.35;;;2.25;;
74487;SDS011;63019;51.080;13.642;2023-04-24T01:12:58;3.92;;;2.42;;
74487;SDS011;63019;51.080;13.642;2023-04-24T01:14:00;5.65;;;2.25;;
74487;SDS011;63019;51.080;13.642;2023-04-24T01:15:03;6.75;;;2.25;;
74487;SDS011;63019;51.080;13.642;2023-04-24T01:16:05;4.80;;;2.10;;
74487;SDS011;63019;51.080;13.642;2023-04-24T01:17:07;6.05;;;2.25;;
74487;SDS011;63019;51.080;13.642;2023-04-24T01:18:10;3.70;;;2.20;;
74487;SDS011;63019;51.080;13.642;2023-04-24T01:19:12;4.20;;;2.23;;
74487;SDS011;63019;51.080;13.642;2023-04-24T01:20:16;3.75;;;2.10;;
74487;SDS011;63019;51.080;13.642;2023-04-24T01:21:19;3.35;;;2.30;;
74487;SDS011;63019;51.080;13.642;2023-04-24T01:22:22;5.10;;;2.20;;
74487;SDS011;63019;51.080;13.642;2023-04-24T01:23:24;3.95;;;2.35;;
74487;SDS011;63019;51.080;13.642;2023-04-24T01:24:27;5.03;;;2.20;;
74487;SDS011;63019;51.080;13.642;2023-04-24T01:25:29;7.45;;;2.50;;
74487;SDS011;63019;51.080;13.642;2023-04-24T01:26:32;5.70;;;2.60;;
74487;SDS011;63019;51.080;13.642;2023-04-24T01:27:34;5.47;;;2.58;;
74487;SDS011;63019;51.080;13.642;2023-04-24T01:28:36;6.55;;;2.40;;
74487;SDS011;63019;51.080;13.642;2023-04-24T01:29:38;5.13;;;2.80;;
74487;SDS011;63019;51.080;13.642;2023-04-24T01:30:40;5.97;;;2.42;;
74487;SDS011;63019;51.080;13.642;2023-04-24T01:31:42;5.20;;;2.40;;
74487;SDS011;63019;51.080;13.642;2023-04-24T01:32:45;5.13;;;2.40;;
74487;SDS011;63019;51.080;13.642;2023-04-24T01:33:47;5.60;;;2.50;;
74487;SDS011;63019;51.080;13.642;2023-04-24T01:34:49;4.63;;;2.38;;
74487;SDS011;63019;51.080;13.642;2023-04-24T01:35:52;4.25;;;2.30;;
74487;SDS011;63019;51.080;13.642;2023-04-24T01:36:54;6.60;;;2.70;;
74487;SDS011;63019;51.080;13.642;2023-04-24T01:37:57;3.17;;;2.10;;
74487;SDS011;63019;51.080;13.642;2023-04-24T01:39:00;3.22;;;2.30;;
74487;SDS011;63019;51.080;13.642;2023-04-24T01:40:02;5.00;;;2.50;;
74487;SDS011;63019;51.080;13.642;2023-04-24T01:41:05;3.72;;;2.17;;
74487;SDS011;63019;51.080;13.642;2023-04-24T01:42:07;3.75;;;2.10;;
74487;SDS011;63019;51.080;13.642;2023-04-24T01:43:08;5.25;;;2.55;;
74487;SDS011;63019;51.080;13.642;2023-04-24T01:44:10;7.38;;;2.50;;
74487;SDS011;63019;51.080;13.642;2023-04-24T01:45:12;5.65;;;2.30;;
74487;SDS011;63019;51.080;13.642;2023-04-24T01:46:14;6.38;;;2.65;;
74487;SDS011;63019;51.080;13.642;2023-04-24T01:47:16;4.72;;;2.60;;
74487;SDS011;63019;51.080;13.642;2023-04-24T01:48:18;4.40;;;2.53;;
74487;SDS011;63019;51.080;13.642;2023-04-24T01:49:20;4.18;;;2.40;;
74487;SDS011;63019;51.080;13.642;2023-04-24T01:50:22;5.13;;;2.87;;
74487;SDS011;63019;51.080;13.642;2023-04-24T01:51:24;3.78;;;2.40;;
74487;SDS011;63019;51.080;13.642;2023-04-24T01:52:26;5.15;;;2.53;;
74487;SDS011;63019;51.080;13.642;2023-04-24T01:53:28;3.67;;;2.42;;
74487;SDS011;63019;51.080;13.642;2023-04-24T01:54:30;5.00;;;2.40;;
74487;SDS011;63019;51.080;13.642;2023-04-24T01:55:31;5.57;;;2.60;;
74487;SDS011;63019;51.080;13.642;2023-04-24T01:56:34;4.80;;;2.70;;
74487;SDS011;63019;51.080;13.642;2023-04-24T01:57:37;4.55;;;2.65;;
74487;SDS011;63019;51.080;13.642;2023-04-24T01:58:39;4.60;;;2.58;;
74487;SDS011;63019;51.080;13.642;2023-04-24T01:59:42;6.60;;;2.53;;
74487;SDS011;63019;51.080;13.642;2023-04-24T02:00:44;4.27;;;2.50;;
74487;SDS011;63019;51.080;13.642;2023-04-24T02:01:46;8.15;;;3.25;;
74487;SDS011;63019;51.080;13.642;2023-04-24T02:02:47;5.25;;;2.38;;
74487;SDS011;63019;51.080;13.642;2023-04-24T02:03:49;6.22;;;2.63;;
74487;SDS011;63019;51.080;13.642;2023-04-24T02:04:51;3.90;;;2.40;;
74487;SDS011;63019;51.080;13.642;2023-04-24T02:05:53;3.72;;;2.60;;
74487;SDS011;63019;51.080;13.642;2023-04-24T02:06:55;3.75;;;2.60;;
74487;SDS011;63019;51.080;13.642;2023-04-24T02:07:57;6.97;;;2.88;;
74487;SDS011;63019;51.080;13.642;2023-04-24T02:08:58;4.18;;;2.50;;
74487;SDS011;63019;51.080;13.642;2023-04-24T02:10:00;8.10;;;2.53;;
74487;SDS011;63019;51.080;13.642;2023-04-24T02:11:02;4.27;;;2.43;;
74487;SDS011;63019;51.080;13.642;2023-04-24T02:12:04;5.88;;;2.60;;
74487;SDS011;63019;51.080;13.642;2023-04-24T02:13:06;4.15;;;2.40;;
74487;SDS011;63019;51.080;13.642;2023-04-24T02:14:08;7.95;;;2.50;;
74487;SDS011;63019;51.080;13.642;2023-04-24T02:15:10;5.00;;;2.60;;
74487;SDS011;63019;51.080;13.642;2023-04-24T02:16:12;11.32;;;2.83;;
74487;SDS011;63019;51.080;13.642;2023-04-24T02:17:14;6.65;;;2.72;;
74487;SDS011;63019;51.080;13.642;2023-04-24T02:18:17;7.57;;;2.47;;
74487;SDS011;63019;51.080;13.642;2023-04-24T02:19:19;6.53;;;2.45;;
74487;SDS011;63019;51.080;13.642;2023-04-24T02:20:20;6.85;;;2.30;;
74487;SDS011;63019;51.080;13.642;2023-04-24T02:21:22;11.23;;;2.60;;
74487;SDS011;63019;51.080;13.642;2023-04-24T02:22:24;6.72;;;2.55;;
74487;SDS011;63019;51.080;13.642;2023-04-24T02:23:26;3.88;;;1.85;;
74487;SDS011;63019;51.080;13.642;2023-04-24T02:24:28;7.50;;;2.10;;
74487;SDS011;63019;51.080;13.642;2023-04-24T02:25:30;6.53;;;2.38;;
74487;SDS011;63019;51.080;13.642;2023-04-24T02:26:31;8.95;;;2.20;;
74487;SDS011;63019;51.080;13.642;2023-04-24T02:27:33;5.65;;;1.92;;
74487;SDS011;63019;51.080;13.642;2023-04-24T02:28:35;10.13;;;2.10;;
74487;SDS011;63019;51.080;13.642;2023-04-24T02:29:37;9.13;;;2.20;;
74487;SDS011;63019;51.080;13.642;2023-04-24T02:30:38;9.38;;;2.10;;
74487;SDS011;63019;51.080;13.642;2023-04-24T02:31:40;10.93;;;2.13;;
74487;SDS011;63019;51.080;13.642;2023-04-24T02:32:42;7.15;;;2.03;;
74487;SDS011;63019;51.080;13.642;2023-04-24T02:33:44;8.40;;;1.90;;
74487;SDS011;63019;51.080;13.642;2023-04-24T02:34:46;4.10;;;1.90;;
74487;SDS011;63019;51.080;13.642;2023-04-24T02:35:47;4.50;;;2.00;;
74487;SDS011;63019;51.080;13.642;2023-04-24T02:36:49;6.75;;;2.58;;
74487;SDS011;63019;51.080;13.642;2023-04-24T02:37:51;6.40;;;2.20;;
74487;SDS011;63019;51.080;13.642;2023-04-24T02:38:53;6.85;;;2.10;;
74487;SDS011;63019;51.080;13.642;2023-04-24T02:39:55;4.90;;;1.95;;
74487;SDS011;63019;51.080;13.642;2023-04-24T02:40:57;8.45;;;2.45;;
74487;SDS011;63019;51.080;13.642;2023-04-24T02:41:58;6.83;;;2.10;;
74487;SDS011;63019;51.080;13.642;2023-04-24T02:43:01;7.93;;;2.33;;
74487;SDS011;63019;51.080;13.642;2023-04-24T02:44:03;11.63;;;2.30;;
74487;SDS011;63019;51.080;13.642;2023-04-24T02:45:04;4.40;;;2.22;;
74487;SDS011;63019;51.080;13.642;2023-04-24T02:46:07;7.20;;;2.55;;
74487;SDS011;63019;51.080;13.642;2023-04-24T02:47:08;7.47;;;2.10;;
74487;SDS011;63019;51.080;13.642;2023-04-24T02:48:10;5.60;;;2.25;;
74487;SDS011;63019;51.080;13.642;2023-04-24T02:49:12;3.05;;;1.98;;
74487;SDS011;63019;51.080;13.642;2023-04-24T02:50:14;3.80;;;1.90;;
74487;SDS011;63019;51.080;13.642;2023-04-24T02:51:15;6.75;;;2.17;;
74487;SDS011;63019;51.080;13.642;2023-04-24T02:52:17;7.63;;;1.80;;
74487;SDS011;63019;51.080;13.642;2023-04-24T02:53:19;4.07;;;1.88;;
74487;SDS011;63019;51.080;13.642;2023-04-24T02:54:21;4.93;;;1.50;;
74487;SDS011;63019;51.080;13.642;2023-04-24T02:55:23;5.18;;;1.58;;
74487;SDS011;63019;51.080;13.642;2023-04-24T02:56:24;3.00;;;1.30;;
74487;SDS011;63019;51.080;13.642;2023-04-24T02:57:26;2.83;;;1.20;;
74487;SDS011;63019;51.080;13.642;2023-04-24T02:58:28;2.75;;;1.00;;
74487;SDS011;63019;51.080;13.642;2023-04-24T02:59:30;1.58;;;1.10;;
74487;SDS011;63019;51.080;13.642;2023-04-24T03:00:31;2.13;;;1.10;;
74487;SDS011;63019;51.080;13.642;2023-04-24T03:01:33;2.05;;;1.10;;
74487;SDS011;63019;51.080;13.642;2023-04-24T03:02:35;2.00;;;1.20;;
74487;SDS011;63019;51.080;13.642;2023-04-24T03:03:38;2.95;;;0.75;;
74487;SDS011;63019;51.080;13.642;2023-04-24T03:04:40;2.58;;;0.70;;
74487;SDS011;63019;51.080;13.642;2023-04-24T03:05:44;2.38;;;0.70;;
74487;SDS011;63019;51.080;13.642;2023-04-24T03:06:46;1.23;;;0.50;;
74487;SDS011;63019;51.080;13.642;2023-04-24T03:07:48;2.85;;;0.50;;
74487;SDS011;63019;51.080;13.642;2023-04-24T03:08:50;2.75;;;0.52;;
74487;SDS011;63019;51.080;13.642;2023-04-24T03:09:52;1.90;;;0.73;;
74487;SDS011;63019;51.080;13.642;2023-04-24T03:10:54;1.00;;;0.60;;
74487;SDS011;63019;51.080;13.642;2023-04-24T03:11:56;2.65;;;0.60;;
74487;SDS011;63019;51.080;13.642;2023-04-24T03:12:58;1.40;;;0.53;;
74487;SDS011;63019;51.080;13.642;2023-04-24T03:14:00;2.03;;;0.50;;
74487;SDS011;63019;51.080;13.642;2023-04-24T03:15:02;3.13;;;0.63;;
74487;SDS011;63019;51.080;13.642;2023-04-24T03:16:04;1.67;;;0.47;;
74487;SDS011;63019;51.080;13.642;2023-04-24T03:17:06;3.88;;;0.55;;
74487;SDS011;63019;51.080;13.642;2023-04-24T03:18:08;1.92;;;0.43;;
74487;SDS011;63019;51.080;13.642;2023-04-24T03:19:10;1.02;;;0.40;;
74487;SDS011;63019;51.080;13.642;2023-04-24T03:20:12;0.75;;;0.40;;
74487;SDS011;63019;51.080;13.642;2023-04-24T03:21:14;1.80;;;0.50;;
74487;SDS011;63019;51.080;13.642;2023-04-24T03:22:16;0.40;;;0.30;;
74487;SDS011;63019;51.080;13.642;2023-04-24T03:23:18;1.13;;;0.30;;
74487;SDS011;63019;51.080;13.642;2023-04-24T03:24:19;0.60;;;0.40;;
74487;SDS011;63019;51.080;13.642;2023-04-24T03:25:21;1.35;;;0.50;;
74487;SDS011;63019;51.080;13.642;2023-04-24T03:26:23;1.65;;;0.40;;
74487;SDS011;63019;51.080;13.642;2023-04-24T03:27:26;1.33;;;0.38;;
74487;SDS011;63019;51.080;13.642;2023-04-24T03:28:28;1.00;;;0.30;;
74487;SDS011;63019;51.080;13.642;2023-04-24T03:29:29;0.50;;;0.40;;
74487;SDS011;63019;51.080;13.642;2023-04-24T03:30:31;1.73;;;0.60;;
74487;SDS011;63019;51.080;13.642;2023-04-24T03:31:33;1.80;;;0.45;;
74487;SDS011;63019;51.080;13.642;2023-04-24T03:32:35;2.35;;;0.50;;
74487;SDS011;63019;51.080;13.642;2023-04-24T03:33:37;1.87;;;0.40;;
74487;SDS011;63019;51.080;13.642;2023-04-24T03:34:39;0.85;;;0.40;;
74487;SDS011;63019;51.080;13.642;2023-04-24T03:35:40;2.30;;;0.30;;
74487;SDS011;63019;51.080;13.642;2023-04-24T03:36:43;0.80;;;0.32;;
74487;SDS011;63019;51.080;13.642;2023-04-24T03:37:44;0.75;;;0.22;;
74487;SDS011;63019;51.080;13.642;2023-04-24T03:38:46;0.60;;;0.40;;
74487;SDS011;63019;51.080;13.642;2023-04-24T03:39:48;0.30;;;0.20;;
74487;SDS011;63019;51.080;13.642;2023-04-24T03:40:50;1.88;;;0.50;;
74487;SDS011;63019;51.080;13.642;2023-04-24T03:41:51;0.30;;;0.30;;
74487;SDS011;63019;51.080;13.642;2023-04-24T03:42:53;2.13;;;0.40;;
74487;SDS011;63019;51.080;13.642;2023-04-24T03:43:55;2.43;;;0.50;;
74487;SDS011;63019;51.080;13.642;2023-04-24T03:44:57;1.55;;;0.30;;
74487;SDS011;63019;51.080;13.642;2023-04-24T03:45:59;1.35;;;0.47;;
74487;SDS011;63019;51.080;13.642;2023-04-24T03:47:00;1.15;;;0.30;;
74487;SDS011;63019;51.080;13.642;2023-04-24T03:48:02;0.45;;;0.30;;
74487;SDS011;63019;51.080;13.642;2023-04-24T03:49:04;0.93;;;0.30;;
74487;SDS011;63019;51.080;13.642;2023-04-24T03:50:06;0.93;;;0.30;;
74487;SDS011;63019;51.080;13.642;2023-04-24T03:51:08;0.60;;;0.30;;
74487;SDS011;63019;51.080;13.642;2023-04-24T03:52:10;2.05;;;0.40;;
74487;SDS011;63019;51.080;13.642;2023-04-24T03:53:12;0.60;;;0.30;;
74487;SDS011;63019;51.080;13.642;2023-04-24T03:54:13;0.87;;;0.50;;
74487;SDS011;63019;51.080;13.642;2023-04-24T03:55:15;0.70;;;0.43;;
74487;SDS011;63019;51.080;13.642;2023-04-24T03:56:17;1.67;;;0.40;;
74487;SDS011;63019;51.080;13.642;2023-04-24T03:57:19;0.65;;;0.30;;
74487;SDS011;63019;51.080;13.642;2023-04-24T03:58:21;2.03;;;0.40;;
74487;SDS011;63019;51.080;13.642;2023-04-24T03:59:22;2.85;;;0.30;;
74487;SDS011;63019;51.080;13.642;2023-04-24T04:00:24;3.20;;;0.43;;
74487;SDS011;63019;51.080;13.642;2023-04-24T04:01:27;0.75;;;0.35;;
74487;SDS011;63019;51.080;13.642;2023-04-24T04:02:29;0.75;;;0.30;;
74487;SDS011;63019;51.080;13.642;2023-04-24T04:03:31;1.98;;;0.32;;
74487;SDS011;63019;51.080;13.642;2023-04-24T04:04:33;0.50;;;0.30;;
74487;SDS011;63019;51.080;13.642;2023-04-24T04:05:35;0.93;;;0.40;;
74487;SDS011;63019;51.080;13.642;2023-04-24T04:06:37;0.40;;;0.20;;
74487;SDS011;63019;51.080;13.642;2023-04-24T04:07:39;1.92;;;0.30;;
74487;SDS011;63019;51.080;13.642;2023-04-24T04:08:41;0.30;;;0.30;;
74487;SDS011;63019;51.080;13.642;2023-04-24T04:09:42;2.03;;;0.40;;
74487;SDS011;63019;51.080;13.642;2023-04-24T04:10:45;1.02;;;0.28;;
74487;SDS011;63019;51.080;13.642;2023-04-24T04:11:46;1.77;;;0.30;;
74487;SDS011;63019;51.080;13.642;2023-04-24T04:12:48;0.75;;;0.30;;
74487;SDS011;63019;51.080;13.642;2023-04-24T04:13:50;1.13;;;0.35;;
74487;SDS011;63019;51.080;13.642;2023-04-24T04:14:52;0.57;;;0.33;;
74487;SDS011;63019;51.080;13.642;2023-04-24T04:15:54;1.00;;;0.30;;
74487;SDS011;63019;51.080;13.642;2023-04-24T04:16:56;0.57;;;0.15;;
74487;SDS011;63019;51.080;13.642;2023-04-24T04:17:58;4.22;;;0.30;;
74487;SDS011;63019;51.080;13.642;2023-04-24T04:18:59;0.50;;;0.20;;
74487;SDS011;63019;51.080;13.642;2023-04-24T04:20:02;1.60;;;0.47;;
74487;SDS011;63019;51.080;13.642;2023-04-24T04:21:08;0.95;;;0.30;;
74487;SDS011;63019;51.080;13.642;2023-04-24T04:22:10;1.95;;;0.40;;
74487;SDS011;63019;51.080;13.642;2023-04-24T04:23:11;1.45;;;0.38;;
74487;SDS011;63019;51.080;13.642;2023-04-24T04:24:13;1.20;;;0.47;;
74487;SDS011;63019;51.080;13.642;2023-04-24T04:25:15;0.70;;;0.33;;
74487;SDS011;63019;51.080;13.642;2023-04-24T04:26:20;0.88;;;0.30;;
74487;SDS011;63019;51.080;13.642;2023-04-24T04:27:22;5.78;;;0.32;;
74487;SDS011;63019;51.080;13.642;2023-04-24T04:28:24;2.35;;;0.30;;
74487;SDS011;63019;51.080;13.642;2023-04-24T04:29:25;1.60;;;0.30;;
74487;SDS011;63019;51.080;13.642;2023-04-24T04:30:27;0.60;;;0.40;;
74487;SDS011;63019;51.080;13.642;2023-04-24T04:31:30;3.75;;;0.30;;
74487;SDS011;63019;51.080;13.642;2023-04-24T04:32:32;1.02;;;0.40;;
74487;SDS011;63019;51.080;13.642;2023-04-24T04:33:34;0.40;;;0.20;;
74487;SDS011;63019;51.080;13.642;2023-04-24T04:34:37;0.77;;;0.20;;
74487;SDS011;63019;51.080;13.642;2023-04-24T04:36:42;4.75;;;0.45;;
74487;SDS011;63019;51.080;13.642;2023-04-24T04:37:57;0.85;;;0.20;;
74487;SDS011;63019;51.080;13.642;2023-04-24T04:39:00;0.20;;;0.20;;
74487;SDS011;63019;51.080;13.642;2023-04-24T04:40:02;0.52;;;0.30;;
74487;SDS011;63019;51.080;13.642;2023-04-24T04:41:09;1.15;;;0.30;;
74487;SDS011;63019;51.080;13.642;2023-04-24T04:42:11;1.33;;;0.30;;
74487;SDS011;63019;51.080;13.642;2023-04-24T04:43:12;0.75;;;0.30;;
74487;SDS011;63019;51.080;13.642;2023-04-24T04:44:16;1.75;;;0.25;;
74487;SDS011;63019;51.080;13.642;2023-04-24T04:45:18;2.80;;;0.55;;
74487;SDS011;63019;51.080;13.642;2023-04-24T04:46:20;1.17;;;0.30;;
74487;SDS011;63019;51.080;13.642;2023-04-24T04:47:22;0.40;;;0.22;;
74487;SDS011;63019;51.080;13.642;2023-04-24T04:48:24;2.60;;;0.35;;
74487;SDS011;63019;51.080;13.642;2023-04-24T04:49:26;0.85;;;0.20;;
74487;SDS011;63019;51.080;13.642;2023-04-24T04:50:29;3.35;;;0.40;;
74487;SDS011;63019;51.080;13.642;2023-04-24T04:51:31;1.23;;;0.43;;
74487;SDS011;63019;51.080;13.642;2023-04-24T04:52:33;1.75;;;0.40;;
74487;SDS011;63019;51.080;13.642;2023-04-24T04:53:35;1.20;;;0.10;;
74487;SDS011;63019;51.080;13.642;2023-04-24T04:54:37;2.88;;;0.38;;
74487;SDS011;63019;51.080;13.642;2023-04-24T04:55:38;2.63;;;0.38;;
74487;SDS011;63019;51.080;13.642;2023-04-24T04:56:40;3.53;;;0.37;;
74487;SDS011;63019;51.080;13.642;2023-04-24T04:57:42;0.35;;;0.22;;
74487;SDS011;63019;51.080;13.642;2023-04-24T04:58:44;1.92;;;0.28;;
74487;SDS011;63019;51.080;13.642;2023-04-24T04:59:46;2.75;;;0.40;;
74487;SDS011;63019;51.080;13.642;2023-04-24T05:00:48;1.48;;;0.30;;
74487;SDS011;63019;51.080;13.642;2023-04-24T05:01:52;1.05;;;0.40;;
74487;SDS011;63019;51.080;13.642;2023-04-24T05:02:53;1.50;;;0.30;;
74487;SDS011;63019;51.080;13.642;2023-04-24T05:04:06;1.13;;;0.38;;
74487;SDS011;63019;51.080;13.642;2023-04-24T05:05:08;5.82;;;0.30;;
74487;SDS011;63019;51.080;13.642;2023-04-24T05:06:10;1.33;;;0.30;;
74487;SDS011;63019;51.080;13.642;2023-04-24T05:07:12;2.00;;;0.30;;
74487;SDS011;63019;51.080;13.642;2023-04-24T05:08:14;3.90;;;0.50;;
74487;SDS011;63019;51.080;13.642;2023-04-24T05:09:27;1.75;;;0.30;;
74487;SDS011;63019;51.080;13.642;2023-04-24T05:10:30;3.53;;;0.30;;
74487;SDS011;63019;51.080;13.642;2023-04-24T05:11:32;1.23;;;0.22;;
74487;SDS011;63019;51.080;13.642;2023-04-24T05:12:34;1.20;;;0.28;;
74487;SDS011;63019;51.080;13.642;2023-04-24T05:13:35;0.95;;;0.35;;
74487;SDS011;63019;51.080;13.642;2023-04-24T05:14:41;0.35;;;0.30;;
74487;SDS011;63019;51.080;13.642;2023-04-24T05:15:43;1.63;;;0.40;;
74487;SDS011;63019;51.080;13.642;2023-04-24T05:16:44;0.73;;;0.35;;
74487;SDS011;63019;51.080;13.642;2023-04-24T05:17:46;1.67;;;0.50;;
74487;SDS011;63019;51.080;13.642;2023-04-24T05:18:48;2.88;;;0.32;;
74487;SDS011;63019;51.080;13.642;2023-04-24T05:19:50;1.17;;;0.32;;
74487;SDS011;63019;51.080;13.642;2023-04-24T05:20:52;2.85;;;0.43;;
74487;SDS011;63019;51.080;13.642;2023-04-24T05:21:54;1.38;;;0.30;;
74487;SDS011;63019;51.080;13.642;2023-04-24T05:22:56;1.38;;;0.30;;
74487;SDS011;63019;51.080;13.642;2023-04-24T05:23:57;7.90;;;0.40;;
74487;SDS011;63019;51.080;13.642;2023-04-24T05:24:59;2.08;;;0.40;;
74487;SDS011;63019;51.080;13.642;2023-04-24T05:26:01;0.57;;;0.30;;
74487;SDS011;63019;51.080;13.642;2023-04-24T05:27:05;3.28;;;0.20;;
74487;SDS011;63019;51.080;13.642;2023-04-24T05:28:07;0.97;;;0.30;;
74487;SDS011;63019;51.080;13.642;2023-04-24T05:29:09;0.77;;;0.30;;
74487;SDS011;63019;51.080;13.642;2023-04-24T05:30:11;1.15;;;0.30;;
74487;SDS011;63019;51.080;13.642;2023-04-24T05:31:13;0.73;;;0.40;;
74487;SDS011;63019;51.080;13.642;2023-04-24T05:32:15;0.88;;;0.25;;
74487;SDS011;63019;51.080;13.642;2023-04-24T05:33:16;0.95;;;0.30;;
74487;SDS011;63019;51.080;13.642;2023-04-24T05:34:18;1.20;;;0.20;;
74487;SDS011;63019;51.080;13.642;2023-04-24T05:35:20;3.30;;;0.30;;
74487;SDS011;63019;51.080;13.642;2023-04-24T05:36:22;1.85;;;0.50;;
74487;SDS011;63019;51.080;13.642;2023-04-24T05:37:24;1.23;;;0.32;;
74487;SDS011;63019;51.080;13.642;2023-04-24T05:38:26;2.43;;;0.30;;
74487;SDS011;63019;51.080;13.642;2023-04-24T05:39:27;2.20;;;0.40;;
74487;SDS011;63019;51.080;13.642;2023-04-24T05:40:29;1.98;;;0.40;;
74487;SDS011;63019;51.080;13.642;2023-04-24T05:41:31;1.90;;;0.30;;
74487;SDS011;63019;51.080;13.642;2023-04-24T05:42:33;1.88;;;0.40;;
74487;SDS011;63019;51.080;13.642;2023-04-24T05:43:35;2.50;;;0.30;;
74487;SDS011;63019;51.080;13.642;2023-04-24T05:44:37;0.95;;;0.38;;
74487;SDS011;63019;51.080;13.642;2023-04-24T05:45:38;3.03;;;0.40;;
74487;SDS011;63019;51.080;13.642;2023-04-24T05:46:40;2.00;;;0.50;;
74487;SDS011;63019;51.080;13.642;2023-04-24T05:47:43;4.47;;;0.40;;
74487;SDS011;63019;51.080;13.642;2023-04-24T05:48:45;0.63;;;0.40;;
74487;SDS011;63019;51.080;13.642;2023-04-24T05:49:47;0.98;;;0.40;;
74487;SDS011;63019;51.080;13.642;2023-04-24T05:50:49;1.77;;;0.30;;
74487;SDS011;63019;51.080;13.642;2023-04-24T05:51:51;1.02;;;0.30;;
74487;SDS011;63019;51.080;13.642;2023-04-24T05:52:53;1.08;;;0.25;;
74487;SDS011;63019;51.080;13.642;2023-04-24T05:53:55;1.15;;;0.40;;
74487;SDS011;63019;51.080;13.642;2023-04-24T05:54:57;3.65;;;0.30;;
74487;SDS011;63019;51.080;13.642;2023-04-24T05:55:59;0.85;;;0.38;;
74487;SDS011;63019;51.080;13.642;2023-04-24T05:57:01;1.80;;;0.30;;
74487;SDS011;63019;51.080;13.642;2023-04-24T05:58:08;5.15;;;0.40;;
74487;SDS011;63019;51.080;13.642;2023-04-24T05:59:10;2.23;;;0.43;;
74487;SDS011;63019;51.080;13.642;2023-04-24T06:00:12;2.33;;;0.30;;
74487;SDS011;63019;51.080;13.642;2023-04-24T06:01:14;0.45;;;0.20;;
74487;SDS011;63019;51.080;13.642;2023-04-24T06:02:16;0.13;;;0.10;;
74487;SDS011;63019;51.080;13.642;2023-04-24T06:03:18;2.15;;;0.38;;
74487;SDS011;63019;51.080;13.642;2023-04-24T06:04:20;1.30;;;0.38;;
74487;SDS011;63019;51.080;13.642;2023-04-24T06:05:23;4.53;;;0.30;;
74487;SDS011;63019;51.080;13.642;2023-04-24T06:06:25;11.80;;;0.40;;
74487;SDS011;63019;51.080;13.642;2023-04-24T06:07:28;1.38;;;0.30;;
74487;SDS011;63019;51.080;13.642;2023-04-24T06:08:30;0.95;;;0.38;;
74487;SDS011;63019;51.080;13.642;2023-04-24T06:09:32;3.03;;;0.27;;